Historique des stations

Station météo de Vendôme

Altitude de la station : 108 m







Données météorologiques pour le 25/09/2022
Date
Heure
Températures Humidité Point de rosée Vitesse
du vent
Direction Rafales Windchill Pression Pluviométrie
Cumul
Date
Heure
Températures Humidité Point de rosée Vitesse
du vent
Direction Rafales Windchill Pression Pluviométrie
Cumul
25/09/2022 16:4017.9 °C54 %8.5 °C1 km/hNNE6 km/h17.91017 hPa0.0 mm
25/09/2022 16:3018.4 °C52 %8.4 °C1 km/hNE8 km/h18.41016 hPa0.0 mm
25/09/2022 16:1019.2 °C51 %8.8 °C1 km/hNNE8 km/h19.21017 hPa0.0 mm
25/09/2022 16:0018.0 °C54 %8.5 °C1 km/hNE6 km/h18.01017 hPa0.0 mm
25/09/2022 15:4017.8 °C55 %8.6 °C1 km/hNNE8 km/h17.81017 hPa0.0 mm
25/09/2022 15:3018.3 °C54 %8.8 °C2 km/hNE8 km/h18.31017 hPa0.0 mm
25/09/2022 15:1018.9 °C52 %8.8 °C2 km/hNNE13 km/h18.91017 hPa0.0 mm
25/09/2022 15:0017.8 °C53 %8.1 °C2 km/hNE13 km/h17.81017 hPa0.0 mm
25/09/2022 14:4018.5 °C55 %9.3 °C2 km/hNNE8 km/h18.51017 hPa0.0 mm
25/09/2022 14:3018.7 °C56 %9.8 °C2 km/hNE8 km/h18.71017 hPa0.0 mm
25/09/2022 14:1017.9 °C57 %9.3 °C2 km/hNNE11 km/h17.91017 hPa0.0 mm
25/09/2022 14:0017.5 °C61 %9.9 °C2 km/hNE15 km/h17.51017 hPa0.0 mm
25/09/2022 13:4017.4 °C64 %10.6 °C2 km/hNE13 km/h17.41017 hPa0.0 mm
25/09/2022 13:3016.5 °C68 %10.6 °C2 km/hNE8 km/h16.51017 hPa0.0 mm
25/09/2022 13:1016.2 °C71 %11.0 °C2 km/hNE8 km/h16.21017 hPa0.0 mm
25/09/2022 13:0015.6 °C74 %10.9 °C2 km/hNE6 km/h15.61017 hPa0.0 mm
25/09/2022 12:4015.5 °C73 %10.7 °C2 km/hNE6 km/h15.51017 hPa0.0 mm
25/09/2022 12:3015.6 °C76 %11.3 °C2 km/hNNE8 km/h15.61017 hPa0.0 mm
25/09/2022 12:1014.2 °C81 %11.0 °C2 km/hNE8 km/h14.21017 hPa0.0 mm
25/09/2022 12:0013.8 °C82 %10.8 °C3 km/hNE8 km/h13.81017 hPa0.0 mm
25/09/2022 11:4013.5 °C82 %10.5 °C3 km/hNE11 km/h13.51017 hPa0.0 mm
25/09/2022 11:3013.4 °C82 %10.4 °C3 km/hNE8 km/h13.41017 hPa0.0 mm
25/09/2022 11:1013.3 °C84 %10.6 °C3 km/hNE8 km/h13.31017 hPa0.0 mm
25/09/2022 11:0013.2 °C85 %10.8 °C3 km/hNE10 km/h13.21017 hPa0.0 mm
25/09/2022 10:4013.0 °C85 %10.5 °C3 km/hNE13 km/h13.01017 hPa0.0 mm
25/09/2022 10:3012.9 °C86 %10.7 °C3 km/hNNE10 km/h12.91017 hPa0.0 mm
25/09/2022 10:1012.4 °C87 %10.3 °C3 km/hNE10 km/h12.41017 hPa0.0 mm
25/09/2022 10:0012.6 °C87 %10.5 °C3 km/hNE10 km/h12.61016 hPa0.0 mm
25/09/2022 09:4012.6 °C88 %10.6 °C3 km/hNE15 km/h12.61017 hPa0.0 mm
25/09/2022 09:3012.5 °C88 %10.6 °C2 km/hNE11 km/h12.51016 hPa0.0 mm
25/09/2022 09:1012.4 °C88 %10.5 °C2 km/hNE10 km/h12.41016 hPa0.0 mm
25/09/2022 09:0012.3 °C88 %10.4 °C2 km/hNE11 km/h12.31016 hPa0.0 mm
25/09/2022 08:4012.2 °C89 %10.5 °C3 km/hNE11 km/h12.21016 hPa0.0 mm
25/09/2022 08:3012.1 °C89 %10.4 °C3 km/hNNE11 km/h12.11016 hPa0.0 mm
25/09/2022 08:1012.1 °C88 %10.2 °C3 km/hNE10 km/h12.11016 hPa0.0 mm
25/09/2022 08:0012.3 °C88 %10.3 °C3 km/hNE11 km/h12.31016 hPa0.0 mm
25/09/2022 07:4012.3 °C88 %10.4 °C2 km/hNE10 km/h12.31016 hPa0.0 mm
25/09/2022 07:3012.4 °C88 %10.5 °C3 km/hNE10 km/h12.41016 hPa0.0 mm
25/09/2022 07:1012.4 °C88 %10.5 °C3 km/hNE10 km/h12.41016 hPa0.0 mm
25/09/2022 07:0012.6 °C88 %10.6 °C2 km/hNE10 km/h12.61015 hPa0.0 mm
25/09/2022 06:4012.6 °C88 %10.6 °C2 km/hNE10 km/h12.61015 hPa0.0 mm
25/09/2022 06:3012.7 °C88 %10.7 °C2 km/hNE11 km/h12.71015 hPa0.0 mm
25/09/2022 06:1012.8 °C88 %10.8 °C2 km/hNE10 km/h12.81015 hPa0.0 mm
25/09/2022 06:0012.8 °C88 %10.9 °C2 km/hNNE8 km/h12.81015 hPa0.0 mm
25/09/2022 05:4012.9 °C89 %11.2 °C2 km/hNNE13 km/h12.91015 hPa0.0 mm
25/09/2022 05:3013.1 °C89 %11.3 °C2 km/hNNE10 km/h13.11015 hPa0.0 mm
25/09/2022 05:1013.2 °C90 %11.6 °C2 km/hNNE8 km/h13.21015 hPa0.0 mm
25/09/2022 05:0013.2 °C89 %11.4 °C2 km/hNE8 km/h13.21015 hPa0.0 mm
25/09/2022 04:4013.3 °C89 %11.6 °C2 km/hNE8 km/h13.31015 hPa0.0 mm
25/09/2022 04:3013.3 °C91 %11.9 °C2 km/hNE10 km/h13.31015 hPa0.0 mm
25/09/2022 04:1013.4 °C92 %12.1 °C2 km/hNNE10 km/h13.41015 hPa0.0 mm
25/09/2022 04:0013.4 °C92 %12.2 °C2 km/hNNE10 km/h13.41015 hPa0.0 mm
25/09/2022 03:4013.4 °C92 %12.2 °C1 km/hNE6 km/h13.41015 hPa0.0 mm
25/09/2022 03:3013.4 °C92 %12.2 °C1 km/hNE8 km/h13.41015 hPa0.0 mm
25/09/2022 03:1013.3 °C92 %12.1 °C-NE5 km/h13.31015 hPa0.0 mm
25/09/2022 03:0013.3 °C93 %12.2 °C-NNE5 km/h13.31015 hPa0.0 mm
25/09/2022 02:4013.2 °C92 %11.9 °C-NE3 km/h13.21015 hPa0.0 mm
25/09/2022 02:3013.1 °C93 %12.0 °C-NNE5 km/h13.11015 hPa0.0 mm
25/09/2022 02:1013.1 °C93 %11.9 °C---13.11015 hPa0.0 mm
25/09/2022 02:0012.9 °C93 %11.8 °C---12.91015 hPa-
25/09/2022 01:4012.8 °C92 %11.5 °C---12.81015 hPa0.2 mm
25/09/2022 01:3012.8 °C92 %11.5 °C---12.81015 hPa0.2 mm
25/09/2022 01:1012.8 °C92 %11.5 °C-NNE5 km/h12.81015 hPa0.2 mm
25/09/2022 01:0012.7 °C92 %11.4 °C-NNE5 km/h12.71015 hPa0.2 mm
25/09/2022 00:4012.6 °C92 %11.3 °C-NNE5 km/h12.61015 hPa0.2 mm
25/09/2022 00:3012.4 °C92 %11.2 °C-NNE5 km/h12.41015 hPa0.2 mm
25/09/2022 00:1012.4 °C92 %11.2 °C-NNE5 km/h12.41015 hPa0.2 mm
25/09/2022 00:0012.3 °C92 %11.1 °C---12.31015 hPa0.2 mm


Minima :

Température : 12.1 °C
Humidité : 51 %
Point de rosée : 8.1 °C
Vent moyen : 1 km/h
Windchill : 12.1
Pression atm. : 1015 hPa
Maxima :

Température : 19.2 °C
Humidité : 93 %
Point de rosée : 12.2 °C
Vent moyen : 3 km/h
Windchill : 19.2
Pression atm. : 1017 hPa
Rafales max : 15 km/h
Cumul de pluie sur 24H : 0.2 mm

Vendôme est une commune du département Loir-et-Cher (41).
La station météorologique du réseau de l'association la plus proche de Vendôme n'a pas encore été identifiée.



Icône Facebook Association Météo Centre Icône Twitter Association Météo Centre Icône Chaîne Youtube Association Météo Centre Icône contact Association Météo Centre Icône Insta Association Météo Centre